sensor_id;sensor_type;location;lat;lon;timestamp;pressure;altitude;pressure_sealevel;temperature;humidity
76122;BME280;64853;53.200;6.080;2023-05-07T00:01:35;101798.47;;;19.91;49.15
76122;BME280;64853;53.200;6.080;2023-05-07T00:06:27;101797.63;;;19.91;48.83
76122;BME280;64853;53.200;6.080;2023-05-07T00:11:20;101802.59;;;19.89;48.84
76122;BME280;64853;53.200;6.080;2023-05-07T00:16:11;101813.13;;;19.87;49.28
76122;BME280;64853;53.200;6.080;2023-05-07T00:21:03;101814.75;;;19.88;48.84
76122;BME280;64853;53.200;6.080;2023-05-07T00:25:55;101815.03;;;19.86;49.17
76122;BME280;64853;53.200;6.080;2023-05-07T00:30:48;101823.06;;;19.82;49.08
76122;BME280;64853;53.200;6.080;2023-05-07T00:35:40;101821.13;;;19.83;48.92
76122;BME280;64853;53.200;6.080;2023-05-07T00:40:31;101824.19;;;19.81;48.55
76122;BME280;64853;53.200;6.080;2023-05-07T00:45:23;101825.28;;;19.80;49.21
76122;BME280;64853;53.200;6.080;2023-05-07T00:50:17;101819.22;;;19.78;49.16
76122;BME280;64853;53.200;6.080;2023-05-07T00:55:09;101812.00;;;19.77;48.77
76122;BME280;64853;53.200;6.080;2023-05-07T01:00:03;101817.53;;;19.77;48.89
76122;BME280;64853;53.200;6.080;2023-05-07T01:04:55;101812.28;;;19.76;48.99
76122;BME280;64853;53.200;6.080;2023-05-07T01:09:48;101815.31;;;19.74;48.81
76122;BME280;64853;53.200;6.080;2023-05-07T01:14:39;101814.78;;;19.72;49.16
76122;BME280;64853;53.200;6.080;2023-05-07T01:19:31;101817.53;;;19.72;48.98
76122;BME280;64853;53.200;6.080;2023-05-07T01:24:23;101807.56;;;19.71;48.96
76122;BME280;64853;53.200;6.080;2023-05-07T01:29:15;101805.91;;;19.70;48.61
76122;BME280;64853;53.200;6.080;2023-05-07T01:34:08;101802.31;;;19.70;48.90
76122;BME280;64853;53.200;6.080;2023-05-07T01:39:01;101807.03;;;19.69;48.88
76122;BME280;64853;53.200;6.080;2023-05-07T01:43:54;101806.19;;;19.69;49.22
76122;BME280;64853;53.200;6.080;2023-05-07T01:48:46;101800.94;;;19.67;48.96
76122;BME280;64853;53.200;6.080;2023-05-07T01:53:38;101808.41;;;19.67;49.14
76122;BME280;64853;53.200;6.080;2023-05-07T01:58:30;101805.91;;;19.65;48.97
76122;BME280;64853;53.200;6.080;2023-05-07T02:03:23;101805.09;;;19.64;48.69
76122;BME280;64853;53.200;6.080;2023-05-07T02:08:15;101800.94;;;19.62;48.71
76122;BME280;64853;53.200;6.080;2023-05-07T02:13:06;101804.81;;;19.61;49.02
76122;BME280;64853;53.200;6.080;2023-05-07T02:17:59;101800.13;;;19.61;48.69
76122;BME280;64853;53.200;6.080;2023-05-07T02:22:52;101811.44;;;19.60;48.66
76122;BME280;64853;53.200;6.080;2023-05-07T02:27:43;101810.91;;;19.58;49.00
76122;BME280;64853;53.200;6.080;2023-05-07T02:32:35;101809.19;;;19.57;48.76
76122;BME280;64853;53.200;6.080;2023-05-07T02:37:26;101815.53;;;19.57;48.71
76122;BME280;64853;53.200;6.080;2023-05-07T02:42:19;101814.19;;;19.55;48.61
76122;BME280;64853;53.200;6.080;2023-05-07T02:47:10;101811.41;;;19.55;49.05
76122;BME280;64853;53.200;6.080;2023-05-07T02:52:03;101810.56;;;19.54;48.70
76122;BME280;64853;53.200;6.080;2023-05-07T02:56:54;101818.31;;;19.52;48.71
76122;BME280;64853;53.200;6.080;2023-05-07T03:01:47;101821.34;;;19.51;48.56
76122;BME280;64853;53.200;6.080;2023-05-07T03:06:39;101820.53;;;19.50;48.82
76122;BME280;64853;53.200;6.080;2023-05-07T03:11:30;101822.44;;;19.50;48.52
76122;BME280;64853;53.200;6.080;2023-05-07T03:16:22;101821.88;;;19.47;48.71
76122;BME280;64853;53.200;6.080;2023-05-07T03:21:15;101826.88;;;19.45;48.83
76122;BME280;64853;53.200;6.080;2023-05-07T03:26:06;101818.56;;;19.45;48.56
76122;BME280;64853;53.200;6.080;2023-05-07T03:30:58;101812.19;;;19.45;48.40
76122;BME280;64853;53.200;6.080;2023-05-07T03:35:49;101815.28;;;19.43;48.77
76122;BME280;64853;53.200;6.080;2023-05-07T03:40:42;101823.84;;;19.42;48.81
76122;BME280;64853;53.200;6.080;2023-05-07T03:45:33;101822.16;;;19.41;48.27
76122;BME280;64853;53.200;6.080;2023-05-07T03:50:25;101835.16;;;19.40;48.28
76122;BME280;64853;53.200;6.080;2023-05-07T03:55:16;101836.25;;;19.39;48.73
76122;BME280;64853;53.200;6.080;2023-05-07T04:00:11;101840.09;;;19.38;48.03
76122;BME280;64853;53.200;6.080;2023-05-07T04:05:02;101832.09;;;19.37;48.37
76122;BME280;64853;53.200;6.080;2023-05-07T04:09:54;101831.28;;;19.36;48.46
76122;BME280;64853;53.200;6.080;2023-05-07T04:14:45;101838.16;;;19.34;48.06
76122;BME280;64853;53.200;6.080;2023-05-07T04:19:38;101839.81;;;19.35;48.54
76122;BME280;64853;53.200;6.080;2023-05-07T04:24:31;101837.34;;;19.33;48.25
76122;BME280;64853;53.200;6.080;2023-05-07T04:29:23;101838.44;;;19.32;48.16
76122;BME280;64853;53.200;6.080;2023-05-07T04:34:14;101831.81;;;19.33;48.39
76122;BME280;64853;53.200;6.080;2023-05-07T04:39:07;101836.78;;;19.31;48.14
76122;BME280;64853;53.200;6.080;2023-05-07T04:43:59;101833.44;;;19.29;48.45
76122;BME280;64853;53.200;6.080;2023-05-07T04:48:51;101838.16;;;19.28;48.04
76122;BME280;64853;53.200;6.080;2023-05-07T04:53:42;101845.03;;;19.21;48.61
76122;BME280;64853;53.200;6.080;2023-05-07T04:58:35;101842.00;;;19.22;48.44
76122;BME280;64853;53.200;6.080;2023-05-07T05:03:26;101849.47;;;19.32;48.06
76122;BME280;64853;53.200;6.080;2023-05-07T05:08:18;101863.03;;;19.34;47.99
76122;BME280;64853;53.200;6.080;2023-05-07T05:13:10;101863.34;;;19.37;47.90
76122;BME280;64853;53.200;6.080;2023-05-07T05:18:04;101877.72;;;19.44;47.66
76122;BME280;64853;53.200;6.080;2023-05-07T05:22:55;101883.78;;;19.46;47.97
76122;BME280;64853;53.200;6.080;2023-05-07T05:27:47;101882.69;;;19.37;47.82
76122;BME280;64853;53.200;6.080;2023-05-07T05:32:38;101886.00;;;19.44;48.12
76122;BME280;64853;53.200;6.080;2023-05-07T05:37:31;101887.69;;;19.51;47.49
76122;BME280;64853;53.200;6.080;2023-05-07T05:42:22;101891.84;;;19.53;47.63
76122;BME280;64853;53.200;6.080;2023-05-07T05:47:14;101898.47;;;19.52;47.28
76122;BME280;64853;53.200;6.080;2023-05-07T05:52:06;101897.91;;;19.50;47.48
76122;BME280;64853;53.200;6.080;2023-05-07T05:56:58;101892.09;;;19.46;47.66
76122;BME280;64853;53.200;6.080;2023-05-07T06:01:50;101893.22;;;19.45;47.47
76122;BME280;64853;53.200;6.080;2023-05-07T06:06:42;101888.78;;;19.44;47.69
76122;BME280;64853;53.200;6.080;2023-05-07T06:11:33;101894.84;;;19.41;47.67
76122;BME280;64853;53.200;6.080;2023-05-07T06:16:26;101906.75;;;19.42;47.34
76122;BME280;64853;53.200;6.080;2023-05-07T06:21:17;101895.66;;;19.37;47.73
76122;BME280;64853;53.200;6.080;2023-05-07T06:26:09;101898.41;;;19.37;47.78
76122;BME280;64853;53.200;6.080;2023-05-07T06:31:11;101900.38;;;19.41;48.15
76122;BME280;64853;53.200;6.080;2023-05-07T06:36:05;101886.00;;;19.50;47.85
76122;BME280;64853;53.200;6.080;2023-05-07T06:40:56;101898.81;;;19.61;48.77
76122;BME280;64853;53.200;6.080;2023-05-07T06:45:48;101910.16;;;19.75;48.30
76122;BME280;64853;53.200;6.080;2023-05-07T06:50:39;101910.47;;;19.78;48.24
76122;BME280;64853;53.200;6.080;2023-05-07T06:55:32;101913.78;;;19.91;48.84
76122;BME280;64853;53.200;6.080;2023-05-07T07:00:23;101921.81;;;20.13;48.15
76122;BME280;64853;53.200;6.080;2023-05-07T07:05:15;101931.25;;;20.12;47.68
76122;BME280;64853;53.200;6.080;2023-05-07T07:10:07;101927.63;;;20.11;48.09
76122;BME280;64853;53.200;6.080;2023-05-07T07:15:00;101939.81;;;20.20;47.80
76122;BME280;64853;53.200;6.080;2023-05-07T07:19:52;101949.78;;;20.22;47.36
76122;BME280;64853;53.200;6.080;2023-05-07T07:24:44;101946.75;;;20.23;47.66
76122;BME280;64853;53.200;6.080;2023-05-07T07:29:35;101943.13;;;20.23;47.07
76122;BME280;64853;53.200;6.080;2023-05-07T07:34:28;101944.81;;;20.24;47.38
76122;BME280;64853;53.200;6.080;2023-05-07T07:39:20;101945.91;;;20.23;47.11
76122;BME280;64853;53.200;6.080;2023-05-07T07:44:11;101944.81;;;20.24;47.67
76122;BME280;64853;53.200;6.080;2023-05-07T07:49:03;101946.19;;;20.21;47.34
76122;BME280;64853;53.200;6.080;2023-05-07T07:53:56;101948.41;;;20.19;47.68
76122;BME280;64853;53.200;6.080;2023-05-07T07:58:47;101948.66;;;20.17;47.86
76122;BME280;64853;53.200;6.080;2023-05-07T08:03:39;101949.78;;;20.16;47.69
76122;BME280;64853;53.200;6.080;2023-05-07T08:08:30;101952.84;;;20.15;47.29
76122;BME280;64853;53.200;6.080;2023-05-07T08:13:23;101949.50;;;20.13;47.44
76122;BME280;64853;53.200;6.080;2023-05-07T08:18:14;101942.59;;;20.10;47.04
76122;BME280;64853;53.200;6.080;2023-05-07T08:23:06;101945.38;;;20.10;47.40
76122;BME280;64853;53.200;6.080;2023-05-07T08:27:58;101934.28;;;20.10;47.26
76122;BME280;64853;53.200;6.080;2023-05-07T08:32:50;101940.91;;;20.09;46.89
76122;BME280;64853;53.200;6.080;2023-05-07T08:37:42;101945.38;;;20.10;47.28
76122;BME280;64853;53.200;6.080;2023-05-07T08:42:35;101945.38;;;20.10;47.16
76122;BME280;64853;53.200;6.080;2023-05-07T08:47:29;101939.81;;;20.10;46.60
76122;BME280;64853;53.200;6.080;2023-05-07T08:52:26;101944.78;;;20.08;47.20
76122;BME280;64853;53.200;6.080;2023-05-07T08:57:18;101943.41;;;20.06;47.71
76122;BME280;64853;53.200;6.080;2023-05-07T09:02:11;101942.00;;;20.08;47.42
76122;BME280;64853;53.200;6.080;2023-05-07T09:07:02;101946.44;;;20.14;47.34
76122;BME280;64853;53.200;6.080;2023-05-07T09:11:58;101956.97;;;20.07;48.05
76122;BME280;64853;53.200;6.080;2023-05-07T09:16:51;101970.25;;;20.15;48.57
76122;BME280;64853;53.200;6.080;2023-05-07T09:21:43;101966.41;;;20.27;47.98
76122;BME280;64853;53.200;6.080;2023-05-07T09:26:35;101966.44;;;20.37;47.55
76122;BME280;64853;53.200;6.080;2023-05-07T09:31:28;101972.50;;;20.49;47.95
76122;BME280;64853;53.200;6.080;2023-05-07T09:36:19;101965.59;;;20.67;47.26
76122;BME280;64853;53.200;6.080;2023-05-07T09:41:11;101967.25;;;20.73;47.16
76122;BME280;64853;53.200;6.080;2023-05-07T09:46:03;101958.09;;;20.83;46.61
76122;BME280;64853;53.200;6.080;2023-05-07T09:51:02;101951.19;;;20.76;46.53
76122;BME280;64853;53.200;6.080;2023-05-07T09:55:53;101958.38;;;20.82;46.40
76122;BME280;64853;53.200;6.080;2023-05-07T10:00:45;101963.34;;;20.85;46.59
76122;BME280;64853;53.200;6.080;2023-05-07T10:05:37;101958.34;;;20.87;46.70
76122;BME280;64853;53.200;6.080;2023-05-07T10:10:32;101958.91;;;20.89;46.83
76122;BME280;64853;53.200;6.080;2023-05-07T10:15:24;101953.66;;;20.92;46.28
76122;BME280;64853;53.200;6.080;2023-05-07T10:20:16;101955.56;;;20.97;46.52
76122;BME280;64853;53.200;6.080;2023-05-07T10:25:14;101958.63;;;21.01;47.03
76122;BME280;64853;53.200;6.080;2023-05-07T10:30:14;101968.00;;;21.05;47.48
76122;BME280;64853;53.200;6.080;2023-05-07T10:35:10;101963.06;;;21.07;47.01
76122;BME280;64853;53.200;6.080;2023-05-07T10:40:06;101964.16;;;21.11;46.83
76122;BME280;64853;53.200;6.080;2023-05-07T10:45:12;101958.56;;;21.16;46.63
76122;BME280;64853;53.200;6.080;2023-05-07T10:50:28;101959.72;;;21.15;47.25
76122;BME280;64853;53.200;6.080;2023-05-07T10:55:21;101955.25;;;21.14;46.85
76122;BME280;64853;53.200;6.080;2023-05-07T11:00:42;101965.81;;;21.12;46.95
76122;BME280;64853;53.200;6.080;2023-05-07T11:05:35;101956.97;;;21.10;47.09
76122;BME280;64853;53.200;6.080;2023-05-07T11:10:48;101960.84;;;21.09;47.30
76122;BME280;64853;53.200;6.080;2023-05-07T11:15:42;101957.78;;;21.11;48.21
76122;BME280;64853;53.200;6.080;2023-05-07T11:20:48;101961.09;;;21.13;48.37
76122;BME280;64853;53.200;6.080;2023-05-07T11:25:40;101955.00;;;21.16;47.79
76122;BME280;64853;53.200;6.080;2023-05-07T11:30:32;101966.06;;;21.16;47.44
76122;BME280;64853;53.200;6.080;2023-05-07T11:35:25;101963.06;;;21.07;47.54
76122;BME280;64853;53.200;6.080;2023-05-07T11:40:16;101970.25;;;21.03;48.12
76122;BME280;64853;53.200;6.080;2023-05-07T11:45:08;101969.69;;;21.01;47.74
76122;BME280;64853;53.200;6.080;2023-05-07T11:50:03;101968.03;;;21.00;47.16
76122;BME280;64853;53.200;6.080;2023-05-07T11:54:57;101963.88;;;20.97;47.76
76122;BME280;64853;53.200;6.080;2023-05-07T11:59:52;101970.81;;;20.95;47.86
76122;BME280;64853;53.200;6.080;2023-05-07T12:04:44;101980.22;;;20.94;47.87
76122;BME280;64853;53.200;6.080;2023-05-07T12:09:36;101965.56;;;20.93;47.79
76122;BME280;64853;53.200;6.080;2023-05-07T12:14:29;101946.44;;;20.81;47.92
76122;BME280;64853;53.200;6.080;2023-05-07T12:19:22;101969.16;;;20.94;48.00
76122;BME280;64853;53.200;6.080;2023-05-07T12:24:14;101975.25;;;20.90;47.60
76122;BME280;64853;53.200;6.080;2023-05-07T12:29:06;101978.59;;;20.92;48.21
76122;BME280;64853;53.200;6.080;2023-05-07T12:33:58;101968.03;;;20.95;48.06
76122;BME280;64853;53.200;6.080;2023-05-07T12:38:50;101984.66;;;20.95;48.20
76122;BME280;64853;53.200;6.080;2023-05-07T12:43:44;101982.44;;;20.97;47.58
76122;BME280;64853;53.200;6.080;2023-05-07T12:48:37;101978.00;;;21.01;48.08
76122;BME280;64853;53.200;6.080;2023-05-07T12:53:30;101981.31;;;21.03;48.11
76122;BME280;64853;53.200;6.080;2023-05-07T12:58:25;101994.63;;;21.06;47.74
76122;BME280;64853;53.200;6.080;2023-05-07T13:03:27;101988.25;;;21.05;47.80
76122;BME280;64853;53.200;6.080;2023-05-07T13:08:26;101985.47;;;21.05;47.95
76122;BME280;64853;53.200;6.080;2023-05-07T13:13:19;101980.22;;;21.09;47.92
76122;BME280;64853;53.200;6.080;2023-05-07T13:18:11;101973.84;;;21.14;47.77
76122;BME280;64853;53.200;6.080;2023-05-07T13:23:03;101973.00;;;21.18;47.62
76122;BME280;64853;53.200;6.080;2023-05-07T13:27:54;101978.00;;;21.21;47.89
76122;BME280;64853;53.200;6.080;2023-05-07T13:32:47;101985.44;;;21.21;47.78
76122;BME280;64853;53.200;6.080;2023-05-07T13:37:39;101987.94;;;21.22;47.69
76122;BME280;64853;53.200;6.080;2023-05-07T13:42:31;101979.63;;;21.27;47.86
76122;BME280;64853;53.200;6.080;2023-05-07T13:47:22;101971.84;;;21.30;47.93
76122;BME280;64853;53.200;6.080;2023-05-07T13:52:15;101972.09;;;21.33;47.44
76122;BME280;64853;53.200;6.080;2023-05-07T13:57:06;101975.13;;;21.37;47.64
76122;BME280;64853;53.200;6.080;2023-05-07T14:01:58;101975.72;;;21.39;47.71
76122;BME280;64853;53.200;6.080;2023-05-07T14:06:49;101977.63;;;21.43;47.72
76122;BME280;64853;53.200;6.080;2023-05-07T14:11:42;101971.25;;;21.48;47.94
76122;BME280;64853;53.200;6.080;2023-05-07T14:16:33;101966.78;;;21.47;47.45
76122;BME280;64853;53.200;6.080;2023-05-07T14:21:25;101966.22;;;21.50;47.75
76122;BME280;64853;53.200;6.080;2023-05-07T14:26:16;101966.75;;;21.52;48.05
76122;BME280;64853;53.200;6.080;2023-05-07T14:31:09;101967.31;;;21.54;48.01
76122;BME280;64853;53.200;6.080;2023-05-07T14:36:00;101974.78;;;21.59;48.42
76122;BME280;64853;53.200;6.080;2023-05-07T14:40:53;101966.69;;;21.68;48.41
76122;BME280;64853;53.200;6.080;2023-05-07T14:45:46;101963.34;;;21.71;48.52
76122;BME280;64853;53.200;6.080;2023-05-07T14:50:39;101970.25;;;21.73;48.51
76122;BME280;64853;53.200;6.080;2023-05-07T14:55:30;101982.19;;;21.74;48.80
76122;BME280;64853;53.200;6.080;2023-05-07T15:00:22;101991.34;;;21.74;48.70
76122;BME280;64853;53.200;6.080;2023-05-07T15:05:13;101988.84;;;21.73;48.18
76122;BME280;64853;53.200;6.080;2023-05-07T15:10:07;101991.34;;;21.79;48.06
76122;BME280;64853;53.200;6.080;2023-05-07T15:14:59;101994.94;;;21.85;48.04
76122;BME280;64853;53.200;6.080;2023-05-07T15:19:50;101992.69;;;21.87;48.02
76122;BME280;64853;53.200;6.080;2023-05-07T15:24:42;101990.44;;;21.89;47.91
76122;BME280;64853;53.200;6.080;2023-05-07T15:29:35;101995.44;;;21.92;48.17
76122;BME280;64853;53.200;6.080;2023-05-07T15:34:27;101997.91;;;21.94;47.96
76122;BME280;64853;53.200;6.080;2023-05-07T15:39:18;101996.81;;;21.95;48.31
76122;BME280;64853;53.200;6.080;2023-05-07T15:44:09;101991.53;;;21.93;48.32
76122;BME280;64853;53.200;6.080;2023-05-07T15:49:02;101994.34;;;21.88;48.38
76122;BME280;64853;53.200;6.080;2023-05-07T15:53:54;101993.81;;;21.86;48.57
76122;BME280;64853;53.200;6.080;2023-05-07T15:58:45;101994.41;;;21.83;48.23
76122;BME280;64853;53.200;6.080;2023-05-07T16:03:37;102002.72;;;21.83;48.49
76122;BME280;64853;53.200;6.080;2023-05-07T16:08:31;102000.50;;;21.80;48.58
76122;BME280;64853;53.200;6.080;2023-05-07T16:13:23;102008.84;;;21.80;48.52
76122;BME280;64853;53.200;6.080;2023-05-07T16:18:15;102002.97;;;21.76;48.49
76122;BME280;64853;53.200;6.080;2023-05-07T16:23:06;102011.56;;;21.75;48.58
76122;BME280;64853;53.200;6.080;2023-05-07T16:27:59;102023.25;;;21.72;48.95
76122;BME280;64853;53.200;6.080;2023-05-07T16:32:50;102015.22;;;21.70;48.80
76122;BME280;64853;53.200;6.080;2023-05-07T16:37:42;102020.50;;;21.67;48.92
76122;BME280;64853;53.200;6.080;2023-05-07T16:42:33;102014.41;;;21.64;48.57
76122;BME280;64853;53.200;6.080;2023-05-07T16:47:26;102002.78;;;21.62;48.67
76122;BME280;64853;53.200;6.080;2023-05-07T16:52:18;102006.09;;;21.64;48.80
76122;BME280;64853;53.200;6.080;2023-05-07T16:57:09;102021.06;;;21.63;48.95
76122;BME280;64853;53.200;6.080;2023-05-07T17:02:01;102014.97;;;21.61;48.70
76122;BME280;64853;53.200;6.080;2023-05-07T17:06:54;102010.53;;;21.60;48.59
76122;BME280;64853;53.200;6.080;2023-05-07T17:11:46;102015.84;;;21.57;48.67
76122;BME280;64853;53.200;6.080;2023-05-07T17:16:37;102023.63;;;21.55;48.95
76122;BME280;64853;53.200;6.080;2023-05-07T17:21:28;102031.38;;;21.53;49.25
76122;BME280;64853;53.200;6.080;2023-05-07T17:26:21;102023.34;;;21.51;49.19
76122;BME280;64853;53.200;6.080;2023-05-07T17:31:13;102029.47;;;21.48;48.87
76122;BME280;64853;53.200;6.080;2023-05-07T17:36:04;102029.19;;;21.44;49.09
76122;BME280;64853;53.200;6.080;2023-05-07T17:40:57;102036.97;;;21.42;49.11
76122;BME280;64853;53.200;6.080;2023-05-07T17:45:50;102031.16;;;21.39;49.56
76122;BME280;64853;53.200;6.080;2023-05-07T17:50:42;102031.16;;;21.39;49.53
76122;BME280;64853;53.200;6.080;2023-05-07T17:55:34;102033.34;;;21.37;49.50
76122;BME280;64853;53.200;6.080;2023-05-07T18:00:29;102044.19;;;21.33;49.75
76122;BME280;64853;53.200;6.080;2023-05-07T18:05:22;102057.22;;;21.38;50.36
76122;BME280;64853;53.200;6.080;2023-05-07T18:10:14;102056.66;;;21.41;50.37
76122;BME280;64853;53.200;6.080;2023-05-07T18:15:06;102054.41;;;21.43;49.67
76122;BME280;64853;53.200;6.080;2023-05-07T18:19:58;102058.31;;;21.42;49.53
76122;BME280;64853;53.200;6.080;2023-05-07T18:24:50;102069.94;;;21.44;49.67
76122;BME280;64853;53.200;6.080;2023-05-07T18:29:42;102074.09;;;21.41;49.55
76122;BME280;64853;53.200;6.080;2023-05-07T18:34:33;102077.16;;;21.40;49.82
76122;BME280;64853;53.200;6.080;2023-05-07T18:39:25;102076.91;;;21.36;49.62
76122;BME280;64853;53.200;6.080;2023-05-07T18:44:18;102076.63;;;21.38;49.66
76122;BME280;64853;53.200;6.080;2023-05-07T18:49:09;102077.44;;;21.38;50.10
76122;BME280;64853;53.200;6.080;2023-05-07T18:54:00;102082.72;;;21.35;50.51
76122;BME280;64853;53.200;6.080;2023-05-07T18:58:52;102087.16;;;21.36;49.81
76122;BME280;64853;53.200;6.080;2023-05-07T19:03:45;102101.31;;;21.34;50.35
76122;BME280;64853;53.200;6.080;2023-05-07T19:08:36;102096.31;;;21.31;50.09
76122;BME280;64853;53.200;6.080;2023-05-07T19:13:28;102104.91;;;21.30;49.99
76122;BME280;64853;53.200;6.080;2023-05-07T19:18:19;102107.16;;;21.27;50.01
76122;BME280;64853;53.200;6.080;2023-05-07T19:23:12;102112.13;;;21.25;50.08
76122;BME280;64853;53.200;6.080;2023-05-07T19:28:03;102115.44;;;21.22;50.46
76122;BME280;64853;53.200;6.080;2023-05-07T19:32:55;102116.56;;;21.21;50.43
76122;BME280;64853;53.200;6.080;2023-05-07T19:37:46;102132.63;;;21.19;50.60
76122;BME280;64853;53.200;6.080;2023-05-07T19:42:39;102128.50;;;21.17;50.41
76122;BME280;64853;53.200;6.080;2023-05-07T19:47:30;102133.47;;;21.15;50.44
76122;BME280;64853;53.200;6.080;2023-05-07T19:52:22;102137.63;;;21.12;50.37
76122;BME280;64853;53.200;6.080;2023-05-07T19:57:13;102146.22;;;21.11;49.93
76122;BME280;64853;53.200;6.080;2023-05-07T20:02:08;102150.94;;;21.10;49.90
76122;BME280;64853;53.200;6.080;2023-05-07T20:06:59;102149.28;;;21.09;49.86
76122;BME280;64853;53.200;6.080;2023-05-07T20:11:50;102151.22;;;21.08;50.28
76122;BME280;64853;53.200;6.080;2023-05-07T20:16:42;102157.03;;;21.07;50.39
76122;BME280;64853;53.200;6.080;2023-05-07T20:21:34;102164.75;;;21.05;50.33
76122;BME280;64853;53.200;6.080;2023-05-07T20:26:26;102163.94;;;21.04;50.23
76122;BME280;64853;53.200;6.080;2023-05-07T20:31:17;102165.88;;;21.04;50.39
76122;BME280;64853;53.200;6.080;2023-05-07T20:36:09;102171.69;;;21.02;49.91
76122;BME280;64853;53.200;6.080;2023-05-07T20:41:06;102174.75;;;21.01;49.77
76122;BME280;64853;53.200;6.080;2023-05-07T20:45:58;102166.41;;;20.96;50.04
76122;BME280;64853;53.200;6.080;2023-05-07T20:50:49;102183.06;;;21.01;50.34
76122;BME280;64853;53.200;6.080;2023-05-07T20:55:40;102191.63;;;20.99;49.90
76122;BME280;64853;53.200;6.080;2023-05-07T21:00:33;102195.78;;;20.97;49.68
76122;BME280;64853;53.200;6.080;2023-05-07T21:05:25;102194.09;;;20.96;50.11
76122;BME280;64853;53.200;6.080;2023-05-07T21:10:16;102198.00;;;20.95;49.97
76122;BME280;64853;53.200;6.080;2023-05-07T21:15:09;102198.28;;;20.93;49.41
76122;BME280;64853;53.200;6.080;2023-05-07T21:20:02;102188.84;;;20.84;49.82
76122;BME280;64853;53.200;6.080;2023-05-07T21:24:54;102211.84;;;20.89;49.96
76122;BME280;64853;53.200;6.080;2023-05-07T21:29:45;102196.59;;;20.87;49.50
76122;BME280;64853;53.200;6.080;2023-05-07T21:34:36;102209.91;;;20.85;49.59
76122;BME280;64853;53.200;6.080;2023-05-07T21:39:29;102201.00;;;20.83;49.29
76122;BME280;64853;53.200;6.080;2023-05-07T21:44:21;102198.78;;;20.74;49.59
76122;BME280;64853;53.200;6.080;2023-05-07T21:49:12;102212.91;;;20.78;49.31
76122;BME280;64853;53.200;6.080;2023-05-07T21:54:03;102212.09;;;20.78;49.22
76122;BME280;64853;53.200;6.080;2023-05-07T21:58:57;102225.38;;;20.76;49.78
76122;BME280;64853;53.200;6.080;2023-05-07T22:03:48;102222.91;;;20.74;49.59
76122;BME280;64853;53.200;6.080;2023-05-07T22:08:40;102222.91;;;20.74;49.32
76122;BME280;64853;53.200;6.080;2023-05-07T22:13:31;102226.22;;;20.71;49.45
76122;BME280;64853;53.200;6.080;2023-05-07T22:18:24;102228.44;;;20.69;49.02
76122;BME280;64853;53.200;6.080;2023-05-07T22:23:16;102221.22;;;20.68;48.87
76122;BME280;64853;53.200;6.080;2023-05-07T22:28:07;102222.31;;;20.67;49.51
76122;BME280;64853;53.200;6.080;2023-05-07T22:32:58;102223.44;;;20.66;49.32
76122;BME280;64853;53.200;6.080;2023-05-07T22:37:51;102221.75;;;20.65;48.79
76122;BME280;64853;53.200;6.080;2023-05-07T22:42:43;102217.56;;;20.62;48.68
76122;BME280;64853;53.200;6.080;2023-05-07T22:47:34;102226.16;;;20.61;48.95
76122;BME280;64853;53.200;6.080;2023-05-07T22:52:25;102222.56;;;20.60;48.93
76122;BME280;64853;53.200;6.080;2023-05-07T22:57:18;102222.84;;;20.59;48.93
76122;BME280;64853;53.200;6.080;2023-05-07T23:02:10;102237.78;;;20.58;48.70
76122;BME280;64853;53.200;6.080;2023-05-07T23:07:01;102232.53;;;20.56;49.06
76122;BME280;64853;53.200;6.080;2023-05-07T23:11:52;102231.97;;;20.54;48.45
76122;BME280;64853;53.200;6.080;2023-05-07T23:16:45;102222.81;;;20.53;48.56
76122;BME280;64853;53.200;6.080;2023-05-07T23:21:37;102227.81;;;20.51;48.38
76122;BME280;64853;53.200;6.080;2023-05-07T23:26:28;102219.78;;;20.50;48.76
76122;BME280;64853;53.200;6.080;2023-05-07T23:31:19;102221.69;;;20.49;48.93
76122;BME280;64853;53.200;6.080;2023-05-07T23:36:12;102219.47;;;20.46;48.64
76122;BME280;64853;53.200;6.080;2023-05-07T23:41:04;102216.13;;;20.44;48.37
76122;BME280;64853;53.200;6.080;2023-05-07T23:45:55;102223.91;;;20.42;48.25
76122;BME280;64853;53.200;6.080;2023-05-07T23:50:46;102236.88;;;20.42;48.40
76122;BME280;64853;53.200;6.080;2023-05-07T23:55:39;102230.53;;;20.41;48.56
